createdAt,value
2023-01-04T00:01:20.307Z,5.95
2023-01-04T00:04:22.989Z,5.94
2023-01-04T00:07:25.848Z,5.93
2023-01-04T00:10:28.777Z,5.93
2023-01-04T00:13:32.164Z,5.91
2023-01-04T00:16:36.037Z,5.85
2023-01-04T00:19:38.640Z,5.80
2023-01-04T00:22:41.177Z,5.77
2023-01-04T00:25:43.830Z,5.75
2023-01-04T00:28:53.987Z,5.75
2023-01-04T00:31:57.532Z,5.75
2023-01-04T00:35:01.089Z,5.78
2023-01-04T00:38:03.730Z,5.77
2023-01-04T00:41:12.458Z,5.80
2023-01-04T00:44:21.783Z,5.79
2023-01-04T00:47:24.530Z,5.77
2023-01-04T00:50:27.131Z,5.74
2023-01-04T00:53:29.723Z,5.72
2023-01-04T00:56:34.049Z,5.64
2023-01-04T00:59:36.903Z,5.59
2023-01-04T01:02:39.758Z,5.56
2023-01-04T01:05:42.666Z,5.56
2023-01-04T01:08:45.199Z,5.63
2023-01-04T01:11:47.707Z,5.69
2023-01-04T01:14:52.039Z,5.69
2023-01-04T01:17:56.266Z,5.69
2023-01-04T01:20:58.998Z,5.64
2023-01-04T01:24:01.631Z,5.60
2023-01-04T01:27:04.529Z,5.56
2023-01-04T01:30:08.424Z,5.51
2023-01-04T01:33:11.659Z,5.45
2023-01-04T01:36:16.885Z,5.39
2023-01-04T01:39:19.519Z,5.26
2023-01-04T01:42:23.360Z,5.23
2023-01-04T01:45:35.238Z,5.23
2023-01-04T01:48:40.474Z,5.24
2023-01-04T01:51:44.293Z,5.24
2023-01-04T01:54:51.247Z,5.24
2023-01-04T01:57:55.357Z,5.22
2023-01-04T02:00:58.940Z,5.19
2023-01-04T02:04:03.960Z,5.14
2023-01-04T02:07:07.748Z,5.10
2023-01-04T02:10:11.238Z,5.06
2023-01-04T02:13:20.559Z,5.06
2023-01-04T02:16:57.962Z,5.06
2023-01-04T02:20:21.425Z,5.07
2023-01-04T02:24:01.774Z,5.09
2023-01-04T02:27:36.905Z,5.03
2023-01-04T02:30:45.249Z,4.94
2023-01-04T02:34:03.126Z,4.87
2023-01-04T02:37:09.332Z,4.79
2023-01-04T02:40:26.626Z,4.83
2023-01-04T02:43:58.023Z,4.92
2023-01-04T02:47:12.203Z,4.99
2023-01-04T02:50:32.246Z,5.04
2023-01-04T02:53:39.116Z,5.04
2023-01-04T02:57:06.912Z,5.00
2023-01-04T03:00:57.907Z,4.95
2023-01-04T03:04:48.311Z,4.87
2023-01-04T03:07:56.842Z,4.78
2023-01-04T03:11:26.691Z,4.72
2023-01-04T03:14:35.849Z,4.64
2023-01-04T03:17:59.228Z,4.56
2023-01-04T03:21:04.847Z,4.45
2023-01-04T03:24:29.485Z,4.37
2023-01-04T03:27:50.791Z,4.29
2023-01-04T03:31:30.120Z,4.29
2023-01-04T03:34:52.308Z,4.34
2023-01-04T03:38:31.288Z,4.39
2023-01-04T03:42:14.601Z,4.47
2023-01-04T03:45:42.215Z,4.55
2023-01-04T03:49:01.769Z,4.59
2023-01-04T03:52:07.339Z,4.58
2023-01-04T03:55:11.938Z,4.54
2023-01-04T03:58:15.434Z,4.51
2023-01-04T04:01:20.502Z,4.48
2023-01-04T04:04:41.896Z,4.46
2023-01-04T04:08:03.571Z,4.46
2023-01-04T04:11:25.014Z,4.56
2023-01-04T04:14:27.908Z,4.65
2023-01-04T04:17:30.934Z,4.76
2023-01-04T04:20:33.953Z,4.87
2023-01-04T04:23:37.009Z,4.97
2023-01-04T04:26:39.666Z,5.04
2023-01-04T04:29:42.438Z,5.09
2023-01-04T04:32:45.163Z,5.11
2023-01-04T04:35:52.480Z,5.10
2023-01-04T04:38:55.170Z,5.11
2023-01-04T04:41:59.354Z,5.09
2023-01-04T04:45:03.637Z,5.10
2023-01-04T04:48:07.423Z,5.12
2023-01-04T04:51:10.802Z,5.16
2023-01-04T04:54:19.079Z,5.24
2023-01-04T04:57:21.787Z,5.24
2023-01-04T05:00:24.693Z,5.22
2023-01-04T05:03:28.379Z,5.21
2023-01-04T05:06:31.965Z,5.18
2023-01-04T05:09:34.585Z,5.12
2023-01-04T05:12:57.964Z,5.08
2023-01-04T05:16:03.225Z,5.07
2023-01-04T05:19:06.329Z,5.03
2023-01-04T05:22:08.949Z,5.01
2023-01-04T05:25:12.203Z,5.04
2023-01-04T05:28:14.797Z,5.05
2023-01-04T05:31:17.509Z,5.07
2023-01-04T05:34:22.301Z,5.07
2023-01-04T05:37:25.961Z,5.02
2023-01-04T05:40:29.220Z,5.00
2023-01-04T05:43:31.933Z,5.00
2023-01-04T05:46:34.660Z,5.04
2023-01-04T05:49:37.320Z,5.05
2023-01-04T05:52:39.893Z,5.06
2023-01-04T05:55:42.434Z,5.01
2023-01-04T05:58:44.933Z,4.96
2023-01-04T06:01:47.535Z,4.95
2023-01-04T06:04:58.184Z,4.90
2023-01-04T06:08:01.596Z,4.85
2023-01-04T06:11:04.342Z,4.81
2023-01-04T06:14:07.075Z,4.83
2023-01-04T06:17:09.795Z,4.85
2023-01-04T06:20:12.695Z,4.92
2023-01-04T06:23:16.555Z,4.94
2023-01-04T06:26:20.704Z,4.98
2023-01-04T06:29:23.416Z,4.99
2023-01-04T06:32:25.998Z,5.00
2023-01-04T06:35:28.640Z,5.01
2023-01-04T06:38:33.143Z,4.99
2023-01-04T06:41:35.989Z,4.98
2023-01-04T06:44:41.189Z,4.95
2023-01-04T06:47:44.085Z,4.98
2023-01-04T06:50:46.874Z,5.02
2023-01-04T06:53:49.640Z,5.07
2023-01-04T06:56:52.159Z,5.11
2023-01-04T06:59:54.674Z,5.12
2023-01-04T07:03:14.717Z,5.15
2023-01-04T07:06:18.127Z,5.16
2023-01-04T07:09:20.766Z,5.17
2023-01-04T07:12:24.073Z,5.20
2023-01-04T07:15:38.635Z,5.29
2023-01-04T07:18:43.280Z,5.35
2023-01-04T07:21:45.943Z,5.41
2023-01-04T07:24:48.745Z,5.46
2023-01-04T07:27:55.018Z,5.48
2023-01-04T07:30:57.639Z,5.49
2023-01-04T07:34:00.184Z,5.52
2023-01-04T07:37:02.924Z,5.57
2023-01-04T07:40:06.613Z,5.58
2023-01-04T07:43:09.152Z,5.59
2023-01-04T07:46:12.300Z,5.65
2023-01-04T07:49:18.152Z,5.70
2023-01-04T07:52:21.379Z,5.74
2023-01-04T07:55:23.900Z,5.82
2023-01-04T07:58:31.118Z,5.87
2023-01-04T08:01:38.671Z,5.89
2023-01-04T08:04:41.885Z,5.91
2023-01-04T08:07:44.476Z,5.90
2023-01-04T08:10:46.981Z,5.88
2023-01-04T08:13:49.657Z,5.94
2023-01-04T08:16:52.860Z,5.96
2023-01-04T08:19:55.636Z,5.96
2023-01-04T08:22:58.186Z,6.01
2023-01-04T08:26:09.270Z,6.04
2023-01-04T08:29:12.961Z,6.07
2023-01-04T08:32:16.163Z,6.09
2023-01-04T08:35:20.003Z,6.12
2023-01-04T08:38:58.295Z,6.18
2023-01-04T08:42:04.129Z,6.24
2023-01-04T08:45:08.226Z,6.30
2023-01-04T08:48:10.747Z,6.33
2023-01-04T08:51:16.746Z,6.29
2023-01-04T08:54:19.440Z,6.28
2023-01-04T08:57:21.976Z,6.28
2023-01-04T09:00:24.615Z,6.27
2023-01-04T09:03:27.252Z,6.28
2023-01-04T09:06:30.901Z,6.32
2023-01-04T09:09:33.493Z,6.36
2023-01-04T09:12:36.396Z,6.40
2023-01-04T09:15:39.035Z,6.43
2023-01-04T09:18:41.767Z,6.45
2023-01-04T09:21:44.382Z,6.43
2023-01-04T09:24:47.037Z,6.43
2023-01-04T09:27:49.806Z,6.45
2023-01-04T09:30:53.057Z,6.47
2023-01-04T09:34:15.161Z,6.52
2023-01-04T09:37:19.300Z,6.61
2023-01-04T09:40:30.688Z,6.62
2023-01-04T09:43:56.376Z,6.66
2023-01-04T09:47:06.414Z,6.68
2023-01-04T09:50:23.650Z,6.69
2023-01-04T09:53:35.937Z,6.72
2023-01-04T09:56:39.643Z,6.72
2023-01-04T09:59:42.423Z,6.76
2023-01-04T10:03:03.981Z,6.82
2023-01-04T10:06:10.694Z,6.86
2023-01-04T10:09:15.513Z,6.87
2023-01-04T10:12:32.980Z,6.92
2023-01-04T10:15:41.187Z,6.95
2023-01-04T10:22:25.674Z,6.93
2023-01-04T10:25:44.694Z,6.91
2023-01-04T10:28:57.717Z,6.93
2023-01-04T10:32:20.502Z,6.96
2023-01-04T10:35:26.223Z,7.00
2023-01-04T10:38:32.697Z,7.03
2023-01-04T10:41:59.196Z,7.02
2023-01-04T10:45:18.485Z,7.00
2023-01-04T10:48:24.660Z,6.98
2023-01-04T10:51:59.370Z,6.98
2023-01-04T10:55:11.231Z,7.00
2023-01-04T10:58:32.307Z,7.08
2023-01-04T11:01:45.199Z,7.11
2023-01-04T11:04:59.545Z,7.07
2023-01-04T11:08:10.907Z,7.08
2023-01-04T11:11:23.486Z,7.07
2023-01-04T11:14:26.997Z,7.05
2023-01-04T11:17:32.679Z,7.04
2023-01-04T11:20:38.386Z,7.07
2023-01-04T11:23:41.403Z,7.14
2023-01-04T11:26:47.084Z,7.21
2023-01-04T11:29:58.124Z,7.27
2023-01-04T11:33:10.888Z,7.32
2023-01-04T11:36:33.134Z,7.39
2023-01-04T11:39:37.901Z,7.42
2023-01-04T11:42:40.450Z,7.42
2023-01-04T11:45:54.327Z,7.40
2023-01-04T11:48:57.655Z,7.37
2023-01-04T11:52:00.216Z,7.37
2023-01-04T11:55:26.381Z,7.41
2023-01-04T11:58:28.986Z,7.46
2023-01-04T12:01:34.850Z,7.52
2023-01-04T12:04:37.540Z,7.55
2023-01-04T12:07:41.428Z,7.58
2023-01-04T12:10:44.012Z,7.60
2023-01-04T12:13:46.699Z,7.60
2023-01-04T12:16:52.804Z,7.62
2023-01-04T12:19:57.259Z,7.62
2023-01-04T12:22:59.798Z,7.64
2023-01-04T12:26:02.928Z,7.70
2023-01-04T12:29:22.251Z,7.76
2023-01-04T12:32:27.530Z,7.86
2023-01-04T12:35:57.872Z,7.90
2023-01-04T12:39:04.064Z,7.94
2023-01-04T12:42:13.214Z,7.97
2023-01-04T12:45:18.064Z,8.00
2023-01-04T12:48:48.745Z,8.02
2023-01-04T12:55:36.745Z,8.12
2023-01-04T13:02:37.053Z,8.22
2023-01-04T13:05:57.804Z,8.25
2023-01-04T13:09:02.228Z,8.30
2023-01-04T13:12:14.267Z,8.31
2023-01-04T13:15:28.067Z,8.31
2023-01-04T13:18:52.736Z,8.32
2023-01-04T13:21:55.714Z,8.35
2023-01-04T13:25:00.152Z,8.40
2023-01-04T13:28:05.314Z,8.45
2023-01-04T13:31:08.032Z,8.49
2023-01-04T13:34:27.484Z,8.52
2023-01-04T13:37:36.154Z,8.58
2023-01-04T13:40:48.973Z,8.61
2023-01-04T13:44:07.054Z,8.62
2023-01-04T13:47:09.788Z,8.62
2023-01-04T13:50:35.936Z,8.59
2023-01-04T13:53:38.613Z,8.59
2023-01-04T13:56:41.180Z,8.61
2023-01-04T13:59:43.726Z,8.62
2023-01-04T14:02:46.939Z,8.66
2023-01-04T14:05:52.247Z,8.68
2023-01-04T14:09:07.349Z,8.71
2023-01-04T14:12:19.482Z,8.72
2023-01-04T14:15:24.975Z,8.72
2023-01-04T14:18:31.315Z,8.78
2023-01-04T14:21:37.137Z,8.84
2023-01-04T14:25:08.507Z,8.86
2023-01-04T14:28:30.654Z,8.89
2023-01-04T14:31:36.414Z,8.89
2023-01-04T14:34:39.111Z,8.91
2023-01-04T14:37:41.793Z,8.90
2023-01-04T14:40:46.037Z,8.88
2023-01-04T14:44:02.779Z,8.90
2023-01-04T14:47:07.283Z,8.91
2023-01-04T14:50:12.921Z,8.93
2023-01-04T14:53:16.603Z,8.93
2023-01-04T14:56:19.232Z,8.90
2023-01-04T14:59:25.536Z,8.87
2023-01-04T15:02:30.354Z,8.84
2023-01-04T15:05:37.663Z,8.85
2023-01-04T15:08:40.782Z,8.86
2023-01-04T15:11:43.716Z,8.86
2023-01-04T15:14:46.306Z,8.85
2023-01-04T15:17:49.991Z,8.82
2023-01-04T15:20:52.581Z,8.80
2023-01-04T15:23:55.450Z,8.81
2023-01-04T15:26:58.152Z,8.83
2023-01-04T15:30:00.844Z,8.84
2023-01-04T15:33:03.917Z,8.84
2023-01-04T15:36:21.668Z,8.84
2023-01-04T15:39:26.205Z,8.83
2023-01-04T15:42:47.593Z,8.84
2023-01-04T15:45:50.213Z,8.84
2023-01-04T15:48:53.442Z,8.84
2023-01-04T15:51:57.232Z,8.86
2023-01-04T15:55:00.177Z,8.87
2023-01-04T15:58:03.561Z,8.85
2023-01-04T16:01:11.710Z,8.85
2023-01-04T16:04:15.651Z,8.85
2023-01-04T16:07:20.453Z,8.85
2023-01-04T16:10:23.527Z,8.87
2023-01-04T16:13:26.111Z,8.88
2023-01-04T16:16:31.470Z,8.87
2023-01-04T16:19:34.374Z,8.86
2023-01-04T16:22:37.543Z,8.86
2023-01-04T16:25:40.533Z,8.88
2023-01-04T16:28:43.431Z,8.91
2023-01-04T16:31:46.077Z,8.91
2023-01-04T16:34:50.925Z,8.91
2023-01-04T16:37:53.524Z,8.90
2023-01-04T16:41:01.269Z,8.90
2023-01-04T16:44:05.954Z,8.92
2023-01-04T16:47:08.704Z,8.94
2023-01-04T16:50:12.686Z,8.96
2023-01-04T16:53:15.248Z,8.96
2023-01-04T16:56:20.230Z,8.98
2023-01-04T16:59:23.276Z,8.96
2023-01-04T17:02:26.223Z,8.96
2023-01-04T17:05:28.810Z,9.01
2023-01-04T17:08:32.206Z,9.04
2023-01-04T17:12:27.204Z,9.08
2023-01-04T17:18:22.768Z,9.09
2023-01-04T17:21:35.868Z,9.09
2023-01-04T17:24:39.104Z,9.09
2023-01-04T17:27:44.619Z,9.12
2023-01-04T17:30:49.156Z,9.15
2023-01-04T17:33:52.341Z,9.14
2023-01-04T17:36:55.095Z,9.12
2023-01-04T17:39:57.632Z,9.12
2023-01-04T17:43:00.614Z,9.12
2023-01-04T17:46:05.367Z,9.14
2023-01-04T17:49:22.773Z,9.14
2023-01-04T17:52:30.993Z,9.18
2023-01-04T17:55:34.895Z,9.19
2023-01-04T17:58:39.176Z,9.23
2023-01-04T18:01:42.820Z,9.26
2023-01-04T18:04:45.676Z,9.27
2023-01-04T18:07:49.310Z,9.30
2023-01-04T18:11:08.510Z,9.33
2023-01-04T18:14:14.740Z,9.34
2023-01-04T18:17:20.448Z,9.35
2023-01-04T18:20:25.901Z,9.36
2023-01-04T18:23:29.399Z,9.36
2023-01-04T18:26:53.474Z,9.41
2023-01-04T18:29:57.468Z,9.45
2023-01-04T18:33:00.237Z,9.46
2023-01-04T18:36:05.891Z,9.50
2023-01-04T18:39:10.747Z,9.52
2023-01-04T18:42:13.734Z,9.54
2023-01-04T18:45:18.090Z,9.57
2023-01-04T18:48:21.029Z,9.60
2023-01-04T18:51:26.578Z,9.62
2023-01-04T18:54:29.672Z,9.66
2023-01-04T18:57:33.302Z,9.68
2023-01-04T19:00:37.302Z,9.73
2023-01-04T19:03:41.817Z,9.78
2023-01-04T19:06:44.757Z,9.80
2023-01-04T19:09:48.415Z,9.82
2023-01-04T19:12:51.108Z,9.82
2023-01-04T19:15:54.425Z,9.82
2023-01-04T19:19:01.221Z,9.83
2023-01-04T19:22:04.075Z,9.84
2023-01-04T19:25:07.975Z,9.86
2023-01-04T19:28:13.002Z,9.85
2023-01-04T19:31:19.805Z,9.84
2023-01-04T19:34:23.272Z,9.82
2023-01-04T19:37:26.762Z,9.81
2023-01-04T19:40:31.096Z,9.83
2023-01-04T19:43:34.697Z,9.86
2023-01-04T19:46:39.156Z,9.85
2023-01-04T19:49:42.600Z,9.86
2023-01-04T19:52:48.866Z,9.86
2023-01-04T19:55:55.865Z,9.86
2023-01-04T19:58:58.985Z,9.90
2023-01-04T20:02:01.908Z,9.94
2023-01-04T20:05:05.776Z,9.95
2023-01-04T20:08:09.460Z,9.96
2023-01-04T20:11:13.227Z,9.96
2023-01-04T20:14:16.080Z,9.96
2023-01-04T20:17:19.543Z,9.98
2023-01-04T20:20:22.154Z,10.02
2023-01-04T20:23:25.121Z,10.04
2023-01-04T20:26:28.312Z,10.07
2023-01-04T20:29:33.341Z,10.06
2023-01-04T20:32:44.673Z,10.06
2023-01-04T20:35:47.822Z,10.07
2023-01-04T20:38:51.401Z,10.10
2023-01-04T20:42:14.350Z,10.11
2023-01-04T20:45:17.570Z,10.07
2023-01-04T20:48:23.028Z,10.03
2023-01-04T20:51:28.200Z,10.02
2023-01-04T20:54:33.436Z,10.04
2023-01-04T20:57:36.481Z,10.08
2023-01-04T21:00:40.554Z,10.11
2023-01-04T21:03:51.257Z,10.12
2023-01-04T21:06:54.414Z,10.13
2023-01-04T21:09:57.734Z,10.13
2023-01-04T21:13:01.808Z,10.16
2023-01-04T21:16:06.483Z,10.19
2023-01-04T21:19:10.487Z,10.19
2023-01-04T21:22:13.401Z,10.19
2023-01-04T21:25:16.024Z,10.17
2023-01-04T21:28:21.251Z,10.18
2023-01-04T21:31:25.301Z,10.22
2023-01-04T21:34:31.342Z,10.26
2023-01-04T21:37:34.063Z,10.28
2023-01-04T21:40:38.860Z,10.30
2023-01-04T21:43:42.365Z,10.29
2023-01-04T21:46:45.392Z,10.28
2023-01-04T21:49:48.510Z,10.28
2023-01-04T21:52:52.103Z,10.28
2023-01-04T21:56:18.810Z,10.27
2023-01-04T21:59:21.478Z,10.24
2023-01-04T22:02:24.159Z,10.21
2023-01-04T22:05:27.030Z,10.19
2023-01-04T22:08:30.391Z,10.16
2023-01-04T22:11:33.435Z,10.16
2023-01-04T22:14:36.978Z,10.16
2023-01-04T22:17:39.611Z,10.16
2023-01-04T22:20:42.600Z,10.15
2023-01-04T22:23:45.613Z,10.14
2023-01-04T22:26:49.483Z,10.12
2023-01-04T22:29:52.438Z,10.13
2023-01-04T22:32:55.092Z,10.12
2023-01-04T22:35:57.676Z,10.14
2023-01-04T22:39:00.347Z,10.14
2023-01-04T22:42:03.142Z,10.16
2023-01-04T22:45:13.038Z,10.17
2023-01-04T22:48:16.225Z,10.18
2023-01-04T22:51:20.591Z,10.21
2023-01-04T22:54:23.852Z,10.24
2023-01-04T22:57:26.422Z,10.28
2023-01-04T23:00:28.932Z,10.31
2023-01-04T23:03:36.351Z,10.34
2023-01-04T23:06:38.999Z,10.31
2023-01-04T23:09:42.537Z,10.30
2023-01-04T23:12:45.068Z,10.32
2023-01-04T23:15:47.552Z,10.35
2023-01-04T23:18:50.145Z,10.37
2023-01-04T23:21:52.685Z,10.41
2023-01-04T23:24:55.315Z,10.45
2023-01-04T23:27:57.890Z,10.46
2023-01-04T23:31:06.577Z,10.44
2023-01-04T23:34:12.494Z,10.43
2023-01-04T23:37:15.045Z,10.43
2023-01-04T23:40:17.744Z,10.45
2023-01-04T23:43:20.451Z,10.46
2023-01-04T23:46:23.856Z,10.45
2023-01-04T23:49:29.672Z,10.44
2023-01-04T23:52:32.211Z,10.43
2023-01-04T23:55:35.845Z,10.42
2023-01-04T23:58:38.907Z,10.43
